createdAt,value
2016-08-31T00:00:03.124Z,0
2016-08-31T00:01:03.159Z,0
2016-08-31T00:02:18.995Z,0
2016-08-31T00:03:03.175Z,0
2016-08-31T00:04:03.177Z,0
2016-08-31T00:05:03.191Z,0
2016-08-31T00:06:03.227Z,0
2016-08-31T00:07:18.174Z,0
2016-08-31T00:08:03.276Z,0
2016-08-31T00:09:03.306Z,0
2016-08-31T00:10:03.879Z,0
2016-08-31T00:11:03.347Z,0
2016-08-31T00:12:03.366Z,0
2016-08-31T00:13:18.336Z,0
2016-08-31T00:14:03.417Z,0
2016-08-31T00:15:03.435Z,0
2016-08-31T00:16:03.456Z,0
2016-08-31T00:17:03.491Z,0
2016-08-31T00:18:03.531Z,0
2016-08-31T00:19:03.536Z,0
2016-08-31T00:20:04.225Z,0
2016-08-31T00:21:03.596Z,0
2016-08-31T00:22:18.567Z,0
2016-08-31T00:23:18.567Z,0
2016-08-31T00:24:03.711Z,0
2016-08-31T00:26:03.712Z,0
2016-08-31T00:27:03.732Z,0
2016-08-31T00:28:03.755Z,0
2016-08-31T00:29:03.795Z,0
2016-08-31T00:30:03.827Z,0
2016-08-31T00:31:03.849Z,0
2016-08-31T00:32:03.863Z,0
2016-08-31T00:33:03.904Z,0
2016-08-31T00:34:03.901Z,0
2016-08-31T00:35:03.953Z,0
2016-08-31T00:36:18.878Z,0
2016-08-31T00:37:04.002Z,0
2016-08-31T00:38:04.714Z,0
2016-08-31T00:39:18.952Z,0
2016-08-31T00:40:04.067Z,0
2016-08-31T00:41:04.080Z,0
2016-08-31T00:42:04.101Z,0
2016-08-31T00:44:04.188Z,0
2016-08-31T00:45:05.319Z,0
2016-08-31T00:46:04.204Z,0
2016-08-31T00:47:04.235Z,0
2016-08-31T00:48:04.268Z,0
2016-08-31T00:49:04.273Z,0
2016-08-31T00:50:04.344Z,0
2016-08-31T00:51:19.255Z,0
2016-08-31T00:52:04.356Z,0
2016-08-31T00:53:04.398Z,0
2016-08-31T00:54:19.322Z,0
2016-08-31T00:55:19.356Z,0
2016-08-31T00:56:04.462Z,0
2016-08-31T00:57:04.499Z,0
2016-08-31T00:58:04.497Z,0
2016-08-31T01:00:04.552Z,0
2016-08-31T01:01:04.592Z,0
2016-08-31T01:03:04.632Z,0
2016-08-31T01:04:04.651Z,0
2016-08-31T01:05:04.683Z,0
2016-08-31T01:06:04.713Z,0
2016-08-31T01:07:04.729Z,0
2016-08-31T01:08:04.743Z,0
2016-08-31T01:09:04.773Z,0
2016-08-31T01:10:04.839Z,0
2016-08-31T01:11:04.838Z,0
2016-08-31T01:12:04.875Z,0
2016-08-31T01:13:04.859Z,0
2016-08-31T01:14:19.824Z,0
2016-08-31T01:15:04.933Z,0
2016-08-31T01:16:04.954Z,0
2016-08-31T01:17:19.911Z,0
2016-08-31T01:18:04.993Z,0
2016-08-31T01:19:05.014Z,0
2016-08-31T01:20:05.064Z,0
2016-08-31T01:21:05.061Z,0
2016-08-31T01:22:05.791Z,0
2016-08-31T01:24:20.057Z,0
2016-08-31T01:25:05.281Z,0
2016-08-31T01:26:20.114Z,0
2016-08-31T01:27:05.235Z,0
2016-08-31T01:28:20.154Z,0
2016-08-31T01:29:20.176Z,0
2016-08-31T01:30:05.293Z,0
2016-08-31T01:31:05.311Z,0
2016-08-31T01:32:20.274Z,0
2016-08-31T01:33:05.353Z,0
2016-08-31T01:34:06.128Z,0
2016-08-31T01:35:05.439Z,0
2016-08-31T01:36:05.435Z,0
2016-08-31T01:38:20.402Z,0
2016-08-31T01:39:20.444Z,0
2016-08-31T01:40:20.447Z,0
2016-08-31T01:41:05.554Z,0
2016-08-31T01:42:20.514Z,0
2016-08-31T01:46:05.701Z,0
2016-08-31T01:47:05.698Z,0
2016-08-31T01:48:05.729Z,0
2016-08-31T01:49:06.456Z,0
2016-08-31T01:50:06.320Z,0
2016-08-31T01:51:05.797Z,0
2016-08-31T01:52:05.823Z,0
2016-08-31T01:53:05.846Z,0
2016-08-31T01:54:20.800Z,0
2016-08-31T01:55:06.245Z,0
2016-08-31T01:56:05.938Z,0
2016-08-31T01:57:05.948Z,0
2016-08-31T01:58:20.887Z,0
2016-08-31T01:59:05.988Z,0
2016-08-31T02:00:06.025Z,0
2016-08-31T02:02:06.064Z,0
2016-08-31T02:03:06.084Z,0
2016-08-31T02:04:06.830Z,0
2016-08-31T02:06:06.173Z,0
2016-08-31T02:07:06.190Z,0
2016-08-31T02:08:06.238Z,0
2016-08-31T02:09:06.228Z,0
2016-08-31T02:10:07.205Z,0
2016-08-31T02:11:21.204Z,0
2016-08-31T02:12:07.384Z,0
2016-08-31T02:13:06.329Z,0
2016-08-31T02:14:21.288Z,0
2016-08-31T02:15:06.375Z,0
2016-08-31T02:16:06.417Z,0
2016-08-31T02:17:06.572Z,0
2016-08-31T02:18:06.618Z,0
2016-08-31T02:19:21.424Z,0
2016-08-31T02:20:06.507Z,0
2016-08-31T02:21:06.531Z,0
2016-08-31T02:22:06.551Z,0
2016-08-31T02:23:06.585Z,0
2016-08-31T02:24:06.589Z,0
2016-08-31T02:25:06.643Z,0
2016-08-31T02:26:06.707Z,0
2016-08-31T02:27:06.700Z,0
2016-08-31T02:28:06.695Z,0
2016-08-31T02:29:21.641Z,0
2016-08-31T02:30:06.751Z,0
2016-08-31T02:32:21.722Z,0
2016-08-31T02:33:21.745Z,0
2016-08-31T02:34:06.846Z,0
2016-08-31T02:36:06.888Z,0
2016-08-31T02:37:06.915Z,0
2016-08-31T02:38:06.932Z,0
2016-08-31T02:39:06.957Z,0
2016-08-31T02:40:06.980Z,0
2016-08-31T02:41:07.006Z,0
2016-08-31T02:42:07.041Z,0
2016-08-31T02:43:07.074Z,0
2016-08-31T02:44:21.999Z,0
2016-08-31T02:45:07.103Z,0
2016-08-31T02:46:07.132Z,0
2016-08-31T02:47:07.170Z,0
2016-08-31T02:48:07.180Z,0
2016-08-31T02:49:07.226Z,0
2016-08-31T02:50:07.241Z,0
2016-08-31T02:51:07.285Z,0
2016-08-31T02:52:07.287Z,0
2016-08-31T02:53:07.304Z,0
2016-08-31T02:54:07.326Z,0
2016-08-31T02:55:07.342Z,0
2016-08-31T02:56:07.369Z,0
2016-08-31T02:57:07.407Z,0
2016-08-31T02:58:07.422Z,0
2016-08-31T02:59:07.461Z,0
2016-08-31T03:00:07.481Z,0
2016-08-31T03:01:22.421Z,0
2016-08-31T03:02:07.510Z,0
2016-08-31T03:03:07.537Z,0
2016-08-31T03:04:07.551Z,0
2016-08-31T03:05:07.616Z,0
2016-08-31T03:06:07.604Z,0
2016-08-31T03:07:07.650Z,0
2016-08-31T03:08:07.649Z,0
2016-08-31T03:09:07.685Z,0
2016-08-31T03:11:07.724Z,0
2016-08-31T03:12:07.750Z,0
2016-08-31T03:13:07.802Z,0
2016-08-31T03:14:07.800Z,0
2016-08-31T03:15:07.835Z,0
2016-08-31T03:16:07.859Z,0
2016-08-31T03:17:22.792Z,0
2016-08-31T03:18:07.903Z,0
2016-08-31T03:19:07.972Z,0
2016-08-31T03:20:07.946Z,0
2016-08-31T03:21:07.966Z,0
2016-08-31T03:23:08.023Z,0
2016-08-31T03:24:08.056Z,0
2016-08-31T03:25:08.068Z,0
2016-08-31T03:26:08.082Z,0
2016-08-31T03:27:08.179Z,0
2016-08-31T03:28:23.060Z,0
2016-08-31T03:30:08.189Z,0
2016-08-31T03:31:08.225Z,0
2016-08-31T03:32:23.152Z,0
2016-08-31T03:33:23.868Z,0
2016-08-31T03:34:08.282Z,0
2016-08-31T03:35:08.332Z,4
2016-08-31T03:36:08.338Z,4
2016-08-31T03:37:08.353Z,0
2016-08-31T03:38:23.305Z,0
2016-08-31T03:40:08.450Z,4
2016-08-31T03:41:08.447Z,4
2016-08-31T03:42:08.493Z,8
2016-08-31T03:43:08.499Z,4
2016-08-31T03:46:08.586Z,8
2016-08-31T03:47:08.608Z,12
2016-08-31T03:48:08.615Z,12
2016-08-31T03:49:23.573Z,16
2016-08-31T03:50:08.729Z,16
2016-08-31T03:52:08.726Z,20
2016-08-31T03:53:08.736Z,24
2016-08-31T03:54:08.766Z,28
2016-08-31T03:55:08.797Z,36
2016-08-31T03:56:09.528Z,40
2016-08-31T03:57:08.833Z,48
2016-08-31T03:58:23.781Z,60
2016-08-31T03:59:08.915Z,64
2016-08-31T04:00:08.942Z,76
2016-08-31T04:01:08.930Z,84
2016-08-31T04:02:08.947Z,96
2016-08-31T04:04:23.935Z,124
2016-08-31T04:05:23.940Z,140
2016-08-31T04:06:23.975Z,156
2016-08-31T04:09:09.812Z,212
2016-08-31T04:10:09.141Z,232
2016-08-31T04:11:09.178Z,252
2016-08-31T04:12:09.197Z,276
2016-08-31T04:13:09.234Z,304
2016-08-31T04:14:09.254Z,328
2016-08-31T04:15:09.328Z,360
2016-08-31T04:16:09.303Z,388
2016-08-31T04:17:09.327Z,420
2016-08-31T04:18:09.337Z,452
2016-08-31T04:19:09.359Z,488
2016-08-31T04:20:09.463Z,524
2016-08-31T04:21:24.323Z,576
2016-08-31T04:22:09.431Z,608
2016-08-31T04:23:09.461Z,648
2016-08-31T04:24:09.475Z,692
2016-08-31T04:25:09.544Z,740
2016-08-31T04:26:09.523Z,784
2016-08-31T04:27:09.616Z,836
2016-08-31T04:28:09.580Z,888
2016-08-31T04:29:09.596Z,936
2016-08-31T04:30:09.625Z,996
2016-08-31T04:31:09.638Z,1052
2016-08-31T04:32:09.679Z,1104
2016-08-31T04:33:24.615Z,1176
2016-08-31T04:34:09.720Z,1224
2016-08-31T04:35:10.110Z,1288
2016-08-31T04:36:24.683Z,1364
2016-08-31T04:37:09.802Z,1412
2016-08-31T04:38:09.812Z,1476
2016-08-31T04:39:24.781Z,1560
2016-08-31T04:40:09.859Z,1616
2016-08-31T04:41:24.829Z,1704
2016-08-31T04:42:09.912Z,1760
2016-08-31T04:43:09.962Z,1828
2016-08-31T04:44:09.963Z,1904
2016-08-31T04:45:09.995Z,1984
2016-08-31T04:46:09.998Z,2064
2016-08-31T04:47:10.028Z,2156
2016-08-31T04:48:24.970Z,5664
2016-08-31T04:49:10.072Z,10148
2016-08-31T04:50:10.095Z,14912
2016-08-31T04:51:10.122Z,18208
2016-08-31T04:52:25.067Z,14752
2016-08-31T04:53:10.174Z,8688
2016-08-31T04:54:10.188Z,8200
2016-08-31T04:56:10.240Z,10236
2016-08-31T04:57:25.201Z,14848
2016-08-31T04:58:25.906Z,11648
2016-08-31T04:59:10.316Z,13280
2016-08-31T05:00:10.360Z,16672
2016-08-31T05:01:10.365Z,19552
2016-08-31T05:02:25.335Z,26464
2016-08-31T05:03:10.417Z,22048
2016-08-31T05:04:25.361Z,9860
2016-08-31T05:05:10.454Z,8928
2016-08-31T05:06:10.493Z,10396
2016-08-31T05:07:11.218Z,19776
2016-08-31T05:08:25.470Z,31456
2016-08-31T05:09:10.558Z,33152
2016-08-31T05:10:10.597Z,29888
2016-08-31T05:11:10.647Z,14528
2016-08-31T05:12:10.643Z,4204
2016-08-31T05:13:10.680Z,3872
2016-08-31T05:14:10.696Z,3904
2016-08-31T05:15:25.672Z,3964
2016-08-31T05:16:10.751Z,4004
2016-08-31T05:17:10.783Z,4080
2016-08-31T05:18:10.832Z,4316
2016-08-31T05:19:10.824Z,5464
2016-08-31T05:20:25.775Z,5384
2016-08-31T05:21:10.894Z,4392
2016-08-31T05:22:25.836Z,4716
2016-08-31T05:23:11.663Z,4696
2016-08-31T05:24:25.893Z,4820
2016-08-31T05:25:11.274Z,5632
2016-08-31T05:26:11.064Z,5464
2016-08-31T05:27:11.040Z,5544
2016-08-31T05:28:11.054Z,7764
2016-08-31T05:29:11.131Z,6092
2016-08-31T05:30:11.720Z,4868
2016-08-31T05:31:26.058Z,4912
2016-08-31T05:32:11.154Z,5376
2016-08-31T05:33:11.202Z,5480
2016-08-31T05:34:11.252Z,4944
2016-08-31T05:35:11.247Z,5052
2016-08-31T05:36:11.954Z,5608
2016-08-31T05:37:11.279Z,16032
2016-08-31T05:38:11.302Z,32544
2016-08-31T05:39:26.250Z,37440
2016-08-31T05:40:11.364Z,38048
2016-08-31T05:41:11.392Z,29344
2016-08-31T05:43:11.437Z,10552
2016-08-31T05:44:11.465Z,9216
2016-08-31T05:45:12.246Z,8448
2016-08-31T05:46:11.526Z,7020
2016-08-31T05:47:11.567Z,6736
2016-08-31T05:48:11.559Z,6036
2016-08-31T05:49:11.596Z,6880
2016-08-31T05:50:12.342Z,9072
2016-08-31T05:51:11.643Z,11596
2016-08-31T05:52:11.671Z,33280
2016-08-31T05:53:11.702Z,55808
2016-08-31T05:54:11.723Z,58112
2016-08-31T05:55:12.598Z,58304
2016-08-31T05:56:11.798Z,63264
2016-08-31T05:57:11.821Z,66272
2016-08-31T05:58:11.822Z,64800
2016-08-31T06:00:17.159Z,61440
2016-08-31T06:01:11.916Z,63680
2016-08-31T06:02:11.933Z,66624
2016-08-31T06:03:12.000Z,67168
2016-08-31T06:05:12.210Z,67648
2016-08-31T06:06:27.343Z,67872
2016-08-31T06:07:12.084Z,69152
2016-08-31T06:08:12.135Z,68736
2016-08-31T06:09:12.137Z,66816
2016-08-31T06:10:12.442Z,60960
2016-08-31T06:11:27.150Z,57856
2016-08-31T06:12:12.232Z,57024
2016-08-31T06:13:12.479Z,60000
2016-08-31T06:14:12.311Z,68128
2016-08-31T06:15:12.352Z,74016
2016-08-31T06:16:12.374Z,73728
2016-08-31T06:17:12.395Z,71552
2016-08-31T06:18:12.460Z,70816
2016-08-31T06:19:12.474Z,73568
2016-08-31T06:21:12.555Z,74048
2016-08-31T06:22:12.569Z,74400
2016-08-31T06:23:27.529Z,74656
2016-08-31T06:25:27.650Z,76736
2016-08-31T06:26:13.424Z,76448
2016-08-31T06:27:27.724Z,78976
2016-08-31T06:28:12.802Z,79232
2016-08-31T06:29:12.813Z,76864
2016-08-31T06:30:12.865Z,74112
2016-08-31T06:31:12.876Z,75392
2016-08-31T06:32:12.928Z,71104
2016-08-31T06:33:12.952Z,69376
2016-08-31T06:34:13.028Z,74400
2016-08-31T06:35:13.202Z,77664
2016-08-31T06:36:13.058Z,78144
2016-08-31T06:37:13.092Z,74304
2016-08-31T06:38:13.140Z,75200
2016-08-31T06:39:13.163Z,78112
2016-08-31T06:40:13.224Z,78272
2016-08-31T06:41:13.253Z,75680
2016-08-31T06:42:13.263Z,76736
2016-08-31T06:43:28.225Z,80288
2016-08-31T06:44:13.345Z,78688
2016-08-31T06:45:13.530Z,78400
2016-08-31T06:46:28.358Z,74208
2016-08-31T06:49:13.546Z,59040
2016-08-31T06:50:13.566Z,67744
2016-08-31T06:51:13.579Z,76704
2016-08-31T06:52:13.627Z,76320
2016-08-31T06:53:13.664Z,78496
2016-08-31T06:54:14.398Z,80320
2016-08-31T06:55:28.653Z,77760
2016-08-31T06:56:13.773Z,79072
2016-08-31T06:57:13.818Z,79680
2016-08-31T06:58:13.875Z,75520
2016-08-31T06:59:28.797Z,75200
2016-08-31T07:00:14.725Z,73888
2016-08-31T07:01:14.652Z,72672
2016-08-31T07:02:14.008Z,75360
2016-08-31T07:03:14.034Z,76128
2016-08-31T07:04:14.062Z,74368
2016-08-31T07:05:14.092Z,72928
2016-08-31T07:06:14.131Z,69792
2016-08-31T07:07:14.159Z,71584
2016-08-31T07:08:14.200Z,72960
2016-08-31T07:10:14.411Z,73856
2016-08-31T07:11:29.238Z,72640
2016-08-31T07:12:14.356Z,73568
2016-08-31T07:13:29.310Z,73344
2016-08-31T07:14:29.362Z,70432
2016-08-31T07:15:14.621Z,72128
2016-08-31T07:16:14.504Z,70752
2016-08-31T07:17:14.541Z,68960
2016-08-31T07:18:14.579Z,69376
2016-08-31T07:19:14.607Z,69376
2016-08-31T07:20:14.645Z,69152
2016-08-31T07:22:14.726Z,67296
2016-08-31T07:23:14.766Z,66144
2016-08-31T07:24:14.800Z,65920
2016-08-31T07:25:15.084Z,65888
2016-08-31T07:26:14.880Z,64736
2016-08-31T07:27:29.828Z,65568
2016-08-31T07:28:14.942Z,65376
2016-08-31T07:29:15.025Z,61984
2016-08-31T07:30:15.846Z,66112
2016-08-31T07:31:15.044Z,62944
2016-08-31T07:32:15.098Z,55872
2016-08-31T07:33:15.175Z,54624
2016-08-31T07:34:15.200Z,59744
2016-08-31T07:36:16.293Z,62304
2016-08-31T07:37:15.283Z,62464
2016-08-31T07:38:15.377Z,59264
2016-08-31T07:39:15.344Z,59360
2016-08-31T07:40:15.387Z,64128
2016-08-31T07:41:30.349Z,61696
2016-08-31T07:42:15.461Z,60448
2016-08-31T07:43:15.508Z,63040
2016-08-31T07:46:31.234Z,57504
2016-08-31T07:47:15.650Z,61280
2016-08-31T07:48:15.683Z,58528
2016-08-31T07:49:15.732Z,54528
2016-08-31T07:50:15.765Z,54592
2016-08-31T07:51:15.811Z,57536
2016-08-31T07:52:15.852Z,59360
2016-08-31T07:53:15.875Z,59264
2016-08-31T07:54:16.603Z,59008
2016-08-31T07:55:15.952Z,58336
2016-08-31T07:56:15.983Z,55584
2016-08-31T07:58:16.062Z,55264
2016-08-31T07:59:16.098Z,51584
2016-08-31T08:00:16.878Z,55776
2016-08-31T08:01:32.717Z,58912
2016-08-31T08:02:31.191Z,51616
2016-08-31T08:03:16.967Z,49792
2016-08-31T08:04:16.405Z,55552
2016-08-31T08:05:16.672Z,53088
2016-08-31T08:06:16.382Z,52800
2016-08-31T08:07:18.693Z,54816
2016-08-31T08:08:16.467Z,52128
2016-08-31T08:09:31.386Z,51904
2016-08-31T08:10:16.483Z,52352
2016-08-31T08:11:17.213Z,48000
2016-08-31T08:12:16.565Z,42016
2016-08-31T08:13:16.612Z,43200
2016-08-31T08:14:31.563Z,44128
2016-08-31T08:15:16.708Z,44800
2016-08-31T08:16:16.702Z,47680
2016-08-31T08:17:31.675Z,46688
2016-08-31T08:18:31.728Z,43936
2016-08-31T08:19:16.831Z,45792
2016-08-31T08:20:16.856Z,46880
2016-08-31T08:21:16.897Z,44352
2016-08-31T08:22:16.926Z,42752
2016-08-31T08:23:16.976Z,45152
2016-08-31T08:24:17.023Z,42208
2016-08-31T08:25:17.764Z,41824
2016-08-31T08:26:17.095Z,42144
2016-08-31T08:27:17.106Z,40320
2016-08-31T08:28:17.143Z,39680
2016-08-31T08:29:17.175Z,38496
2016-08-31T08:30:17.469Z,28864
2016-08-31T08:31:17.263Z,20576
2016-08-31T08:32:17.299Z,19200
2016-08-31T08:33:17.336Z,18816
2016-08-31T08:34:32.341Z,18560
2016-08-31T08:35:17.978Z,18400
2016-08-31T08:36:18.135Z,18272
2016-08-31T08:37:17.528Z,18208
2016-08-31T08:38:17.513Z,18208
2016-08-31T08:39:17.574Z,18016
2016-08-31T08:40:17.600Z,17984
2016-08-31T08:41:17.680Z,18016
2016-08-31T08:42:18.356Z,17920
2016-08-31T08:43:18.386Z,17856
2016-08-31T08:44:18.435Z,17760
2016-08-31T08:45:32.692Z,17600
2016-08-31T08:46:17.799Z,17536
2016-08-31T08:47:17.836Z,17472
2016-08-31T08:48:17.879Z,17440
2016-08-31T08:49:32.840Z,17376
2016-08-31T08:50:17.968Z,17312
2016-08-31T08:51:17.985Z,17128
2016-08-31T08:52:18.016Z,16956
2016-08-31T08:53:32.992Z,16980
2016-08-31T08:54:18.084Z,16920
2016-08-31T08:55:18.130Z,16904
2016-08-31T08:56:18.155Z,16876
2016-08-31T08:58:18.240Z,16684
2016-08-31T08:59:18.293Z,16528
2016-08-31T09:00:18.305Z,16504
2016-08-31T09:01:18.350Z,16456
2016-08-31T09:02:18.373Z,16404
2016-08-31T09:03:18.421Z,16320
2016-08-31T09:04:18.446Z,16272
2016-08-31T09:05:19.233Z,16288
2016-08-31T09:06:18.534Z,16196
2016-08-31T09:07:18.566Z,16048
2016-08-31T09:08:18.584Z,16076
2016-08-31T09:09:18.645Z,15992
2016-08-31T09:10:19.562Z,15980
2016-08-31T09:11:18.701Z,15948
2016-08-31T09:12:18.750Z,15952
2016-08-31T09:13:18.761Z,15908
2016-08-31T09:14:18.801Z,15768
2016-08-31T09:15:18.874Z,15768
2016-08-31T09:16:18.898Z,15692
2016-08-31T09:17:18.908Z,15596
2016-08-31T09:18:18.953Z,15476
2016-08-31T09:19:18.988Z,15412
2016-08-31T09:20:33.946Z,15348
2016-08-31T09:21:34.005Z,15200
2016-08-31T09:22:19.092Z,15112
2016-08-31T09:23:19.148Z,14980
2016-08-31T09:24:19.156Z,14844
2016-08-31T09:25:19.622Z,14792
2016-08-31T09:26:19.943Z,14780
2016-08-31T09:27:19.276Z,14788
2016-08-31T09:28:19.316Z,14744
2016-08-31T09:29:19.362Z,14656
2016-08-31T09:30:20.063Z,14676
2016-08-31T09:31:19.423Z,14640
2016-08-31T09:32:19.446Z,14588
2016-08-31T09:33:19.480Z,14416
2016-08-31T09:34:19.517Z,14352
2016-08-31T09:35:19.567Z,14272
2016-08-31T09:36:19.582Z,14132
2016-08-31T09:37:34.557Z,14060
2016-08-31T09:38:19.746Z,14040
2016-08-31T09:39:19.689Z,13936
2016-08-31T09:40:19.725Z,13948
2016-08-31T09:41:34.708Z,13912
2016-08-31T09:42:19.809Z,13836
2016-08-31T09:43:19.824Z,13780
2016-08-31T09:44:19.859Z,13692
2016-08-31T09:45:20.017Z,13720
2016-08-31T09:46:19.948Z,13620
2016-08-31T09:47:34.907Z,13604
2016-08-31T09:48:20.008Z,13588
2016-08-31T09:49:20.041Z,13524
2016-08-31T09:50:20.081Z,13428
2016-08-31T09:51:20.104Z,13380
2016-08-31T09:52:20.138Z,13300
2016-08-31T09:54:35.133Z,13112
2016-08-31T09:55:20.249Z,13080
2016-08-31T09:56:20.291Z,13116
2016-08-31T09:58:20.330Z,13052
2016-08-31T09:59:20.401Z,12972
2016-08-31T10:00:20.410Z,12880
2016-08-31T10:01:20.451Z,12876
2016-08-31T10:02:20.472Z,12880
2016-08-31T10:03:20.514Z,12824
2016-08-31T10:04:20.558Z,12776
2016-08-31T10:05:20.599Z,12748
2016-08-31T10:06:20.626Z,12708
2016-08-31T10:07:20.654Z,12604
2016-08-31T10:08:20.708Z,12508
2016-08-31T10:09:35.649Z,12424
2016-08-31T10:10:20.748Z,12420
2016-08-31T10:11:20.794Z,12380
2016-08-31T10:12:20.833Z,12272
2016-08-31T10:13:20.855Z,12204
2016-08-31T10:14:20.888Z,12224
2016-08-31T10:15:21.188Z,12172
2016-08-31T10:16:20.946Z,12112
2016-08-31T10:17:35.939Z,12040
2016-08-31T10:18:21.020Z,11968
2016-08-31T10:19:21.109Z,11940
2016-08-31T10:21:21.134Z,11828
2016-08-31T10:22:21.157Z,11752
2016-08-31T10:23:21.210Z,11648
2016-08-31T10:24:36.152Z,11616
2016-08-31T10:25:21.298Z,11576
2016-08-31T10:26:21.302Z,11540
2016-08-31T10:27:21.331Z,11424
2016-08-31T10:28:21.358Z,11368
2016-08-31T10:29:21.388Z,11388
2016-08-31T10:30:36.357Z,11248
2016-08-31T10:31:21.474Z,11232
2016-08-31T10:32:21.526Z,11152
2016-08-31T10:33:21.519Z,11108
2016-08-31T10:34:21.580Z,10968
2016-08-31T10:35:22.222Z,10916
2016-08-31T10:36:21.648Z,10828
2016-08-31T10:37:36.585Z,10792
2016-08-31T10:38:21.721Z,10744
2016-08-31T10:39:21.778Z,10680
2016-08-31T10:40:21.773Z,10604
2016-08-31T10:41:36.710Z,10560
2016-08-31T10:42:21.880Z,10524
2016-08-31T10:43:21.896Z,10480
2016-08-31T10:44:21.886Z,10388
2016-08-31T10:45:22.541Z,10312
2016-08-31T10:46:21.967Z,10244
2016-08-31T10:48:22.787Z,10108
2016-08-31T10:49:22.046Z,10000
2016-08-31T10:51:22.119Z,9488
2016-08-31T10:52:22.160Z,9132
2016-08-31T10:54:22.218Z,8532
2016-08-31T10:55:22.274Z,8212
2016-08-31T10:56:37.316Z,7884
2016-08-31T10:57:22.328Z,7712
2016-08-31T10:58:22.348Z,7504
2016-08-31T10:59:22.378Z,7276
2016-08-31T11:00:22.431Z,7076
2016-08-31T11:02:22.480Z,6724
2016-08-31T11:03:22.497Z,6544
2016-08-31T11:04:22.556Z,6384
2016-08-31T11:05:22.606Z,6236
2016-08-31T11:06:22.599Z,6100
2016-08-31T11:07:22.653Z,5976
2016-08-31T11:08:22.677Z,5848
2016-08-31T11:09:22.703Z,5720
2016-08-31T11:10:37.654Z,5576
2016-08-31T11:11:22.776Z,5508
2016-08-31T11:12:37.726Z,5384
2016-08-31T11:13:22.819Z,5324
2016-08-31T11:14:22.863Z,5252
2016-08-31T11:15:22.885Z,5180
2016-08-31T11:16:22.920Z,5104
2016-08-31T11:17:22.956Z,5052
2016-08-31T11:18:23.001Z,4988
2016-08-31T11:19:23.031Z,4940
2016-08-31T11:20:23.177Z,4896
2016-08-31T11:21:23.102Z,4852
2016-08-31T11:22:38.051Z,4800
2016-08-31T11:23:23.186Z,4772
2016-08-31T11:25:23.194Z,4708
2016-08-31T11:27:23.265Z,4664
2016-08-31T11:28:38.317Z,4636
2016-08-31T11:29:23.327Z,4628
2016-08-31T11:30:38.275Z,4608
2016-08-31T11:31:23.393Z,4596
2016-08-31T11:32:23.442Z,4580
2016-08-31T11:33:23.458Z,4584
2016-08-31T11:34:23.480Z,4576
2016-08-31T11:35:23.533Z,4564
2016-08-31T11:36:23.537Z,4564
2016-08-31T11:37:23.566Z,4556
2016-08-31T11:38:23.609Z,4560
2016-08-31T11:39:23.644Z,4560
2016-08-31T11:40:23.679Z,4576
2016-08-31T11:41:23.865Z,4572
2016-08-31T11:42:23.742Z,4580
2016-08-31T11:43:23.800Z,4588
2016-08-31T11:44:38.713Z,4596
2016-08-31T11:45:23.850Z,4604
2016-08-31T11:46:23.851Z,4612
2016-08-31T11:47:23.899Z,4616
2016-08-31T11:48:23.928Z,4620
2016-08-31T11:49:23.971Z,4624
2016-08-31T11:50:23.980Z,4636
2016-08-31T11:51:24.024Z,4640
2016-08-31T11:52:38.968Z,4648
2016-08-31T11:53:24.067Z,4660
2016-08-31T11:54:39.026Z,4664
2016-08-31T11:55:24.145Z,4668
2016-08-31T11:56:24.162Z,4672
2016-08-31T11:58:24.226Z,4676
2016-08-31T11:59:39.352Z,4680
2016-08-31T12:00:24.301Z,4684
2016-08-31T12:01:24.330Z,4700
2016-08-31T12:02:24.384Z,4704
2016-08-31T12:03:24.382Z,4712
2016-08-31T12:04:24.453Z,4716
2016-08-31T12:05:24.668Z,4732
2016-08-31T12:06:24.482Z,4736
2016-08-31T12:07:24.521Z,4740
2016-08-31T12:08:39.476Z,4752
2016-08-31T12:10:24.610Z,4776
2016-08-31T12:11:25.353Z,4776
2016-08-31T12:12:39.583Z,4796
2016-08-31T12:13:24.692Z,4804
2016-08-31T12:14:39.651Z,4804
2016-08-31T12:15:39.682Z,4820
2016-08-31T12:16:25.483Z,4828
2016-08-31T12:17:24.826Z,4836
2016-08-31T12:18:39.778Z,4864
2016-08-31T12:19:24.868Z,4868
2016-08-31T12:20:25.642Z,4872
2016-08-31T12:21:24.934Z,4892
2016-08-31T12:22:24.962Z,4900
2016-08-31T12:23:24.988Z,4908
2016-08-31T12:24:25.024Z,4912
2016-08-31T12:25:25.049Z,4924
2016-08-31T12:26:25.083Z,4920
2016-08-31T12:27:25.184Z,4940
2016-08-31T12:28:25.140Z,4940
2016-08-31T12:29:25.189Z,4944
2016-08-31T12:30:25.229Z,4952
2016-08-31T12:31:40.185Z,4956
2016-08-31T12:33:40.236Z,4968
2016-08-31T12:34:25.402Z,4964
2016-08-31T12:35:25.349Z,4984
2016-08-31T12:36:25.386Z,4984
2016-08-31T12:37:25.442Z,4988
2016-08-31T12:38:25.445Z,4988
2016-08-31T12:39:40.413Z,4980
2016-08-31T12:40:26.173Z,4820
2016-08-31T12:41:25.558Z,4984
2016-08-31T12:42:25.592Z,4984
2016-08-31T12:43:26.306Z,4996
2016-08-31T12:44:25.640Z,5000
2016-08-31T12:45:40.587Z,5000
2016-08-31T12:46:26.385Z,5004
2016-08-31T12:47:40.646Z,5008
2016-08-31T12:48:25.752Z,5012
2016-08-31T12:49:40.703Z,5016
2016-08-31T12:50:25.810Z,5024
2016-08-31T12:51:40.793Z,5016
2016-08-31T12:52:25.873Z,5024
2016-08-31T12:53:25.913Z,5036
2016-08-31T12:56:38.891Z,5052
2016-08-31T12:57:38.805Z,5048
2016-08-31T12:59:39.458Z,5064
2016-08-31T13:00:38.910Z,5080
2016-08-31T13:01:38.925Z,5088
2016-08-31T13:02:38.982Z,5100
2016-08-31T13:03:53.907Z,5096
2016-08-31T13:04:39.020Z,5100
2016-08-31T13:05:39.039Z,5108
2016-08-31T13:06:39.119Z,5116
2016-08-31T13:07:54.038Z,5132
2016-08-31T13:08:54.062Z,5124
2016-08-31T13:09:39.179Z,5124
2016-08-31T13:10:39.193Z,5132
2016-08-31T13:11:39.263Z,5144
2016-08-31T13:12:39.272Z,5140
2016-08-31T13:13:39.303Z,5140
2016-08-31T13:14:39.320Z,5144
2016-08-31T13:15:54.298Z,5172
2016-08-31T13:16:39.385Z,5168
2016-08-31T13:17:39.407Z,5172
2016-08-31T13:18:39.449Z,5168
2016-08-31T13:19:39.498Z,5168
2016-08-31T13:20:39.546Z,5176
2016-08-31T13:21:39.530Z,5172
2016-08-31T13:22:39.577Z,5176
2016-08-31T13:23:54.519Z,5184
2016-08-31T13:24:54.560Z,5192
2016-08-31T13:25:54.572Z,5196
2016-08-31T13:26:39.698Z,5184
2016-08-31T13:27:54.663Z,5188
2016-08-31T13:28:39.746Z,5184
2016-08-31T13:29:39.779Z,5192
2016-08-31T13:30:39.816Z,5188
2016-08-31T13:31:39.841Z,5192
2016-08-31T13:32:39.880Z,5192
2016-08-31T13:33:39.898Z,5204
2016-08-31T13:34:39.937Z,5196
2016-08-31T13:36:54.920Z,5204
2016-08-31T13:37:40.020Z,5208
2016-08-31T13:39:55.011Z,5212
2016-08-31T13:40:40.120Z,5204
2016-08-31T13:41:40.134Z,5208
2016-08-31T13:43:40.196Z,5204
2016-08-31T13:44:40.341Z,5204
2016-08-31T13:45:40.339Z,5212
2016-08-31T13:46:40.331Z,5208
2016-08-31T13:47:40.358Z,5208
2016-08-31T13:48:40.353Z,5212
2016-08-31T13:49:40.389Z,5216
2016-08-31T13:50:40.429Z,5220
2016-08-31T13:51:40.451Z,5220
2016-08-31T13:52:40.469Z,5232
2016-08-31T13:53:40.520Z,5228
2016-08-31T13:54:40.532Z,5236
2016-08-31T13:55:55.487Z,5228
2016-08-31T13:56:55.513Z,5232
2016-08-31T13:57:40.634Z,5236
2016-08-31T13:58:40.658Z,5244
2016-08-31T13:59:55.616Z,5232
2016-08-31T14:00:40.720Z,5236
2016-08-31T14:01:40.882Z,5228
2016-08-31T14:02:40.783Z,5228
2016-08-31T14:03:40.817Z,5232
2016-08-31T14:04:40.838Z,5240
2016-08-31T14:05:40.870Z,5236
2016-08-31T14:06:40.915Z,5232
2016-08-31T14:08:40.995Z,5244
2016-08-31T14:09:40.990Z,5232
2016-08-31T14:10:55.958Z,5224
2016-08-31T14:11:41.050Z,5224
2016-08-31T14:12:41.077Z,5228
2016-08-31T14:13:41.105Z,5236
2016-08-31T14:14:41.165Z,5240
2016-08-31T14:15:56.108Z,5236
2016-08-31T14:16:41.227Z,5232
2016-08-31T14:17:56.227Z,5232
2016-08-31T14:18:41.977Z,5228
2016-08-31T14:19:41.288Z,5232
2016-08-31T14:20:41.325Z,5228
2016-08-31T14:21:41.364Z,5228
2016-08-31T14:22:41.406Z,5220
2016-08-31T14:23:41.415Z,5216
2016-08-31T14:25:42.185Z,5220
2016-08-31T14:26:41.516Z,5220
2016-08-31T14:27:41.568Z,5212
2016-08-31T14:28:56.483Z,5200